createdAt,value
2023-03-10T00:00:14.240Z,47.60
2023-03-10T00:02:46.716Z,43.78
2023-03-10T00:05:13.536Z,40.30
2023-03-10T00:07:40.265Z,42.05
2023-03-10T00:10:07.368Z,38.88
2023-03-10T00:12:34.127Z,50.13
2023-03-10T00:15:05.082Z,44.65
2023-03-10T00:17:31.766Z,49.95
2023-03-10T00:19:58.453Z,42.83
2023-03-10T00:22:25.273Z,38.03
2023-03-10T00:24:52.042Z,38.58
2023-03-10T00:27:34.699Z,40.38
2023-03-10T00:30:02.063Z,42.33
2023-03-10T00:32:34.825Z,44.13
2023-03-10T00:35:01.901Z,49.55
2023-03-10T00:37:28.578Z,43.70
2023-03-10T00:39:55.826Z,44.58
2023-03-10T00:42:22.970Z,34.28
2023-03-10T00:44:49.785Z,47.47
2023-03-10T00:47:16.479Z,47.97
2023-03-10T00:49:43.105Z,46.65
2023-03-10T00:52:09.901Z,45.03
2023-03-10T00:54:40.233Z,46.40
2023-03-10T00:57:07.228Z,50.13
2023-03-10T00:59:47.891Z,45.13
2023-03-10T01:02:16.285Z,55.75
2023-03-10T01:04:43.114Z,49.10
2023-03-10T01:07:09.925Z,48.63
2023-03-10T01:09:36.875Z,42.15
2023-03-10T01:12:03.869Z,52.33
2023-03-10T01:14:32.028Z,57.50
2023-03-10T01:16:59.602Z,57.25
2023-03-10T01:19:26.351Z,48.03
2023-03-10T01:21:53.046Z,41.15
2023-03-10T01:24:19.839Z,46.97
2023-03-10T01:26:46.537Z,44.75
2023-03-10T01:29:13.303Z,43.03
2023-03-10T01:31:42.071Z,53.55
2023-03-10T01:34:08.909Z,46.33
2023-03-10T01:36:35.704Z,44.10
2023-03-10T01:39:02.423Z,45.85
2023-03-10T01:41:29.687Z,45.00
2023-03-10T01:43:57.225Z,35.85
2023-03-10T01:46:27.197Z,45.45
2023-03-10T01:49:00.248Z,46.42
2023-03-10T01:51:27.655Z,43.47
2023-03-10T01:53:54.529Z,40.63
2023-03-10T01:56:21.277Z,33.63
2023-03-10T01:58:48.592Z,35.08
2023-03-10T02:01:17.032Z,33.38
2023-03-10T02:03:49.886Z,32.50
2023-03-10T02:06:19.590Z,28.13
2023-03-10T02:08:50.603Z,29.02
2023-03-10T02:11:19.928Z,30.77
2023-03-10T02:13:47.291Z,31.08
2023-03-10T02:16:15.377Z,29.15
2023-03-10T02:18:44.596Z,30.98
2023-03-10T02:21:41.295Z,28.42
2023-03-10T02:24:34.440Z,24.98
2023-03-10T02:27:12.961Z,25.75
2023-03-10T02:29:57.991Z,24.00
2023-03-10T02:32:27.384Z,25.88
2023-03-10T02:34:54.173Z,28.13
2023-03-10T02:37:24.799Z,26.83
2023-03-10T02:39:53.396Z,25.45
2023-03-10T02:42:21.218Z,26.50
2023-03-10T02:44:49.273Z,25.77
2023-03-10T02:47:16.632Z,27.73
2023-03-10T02:49:44.431Z,27.52
2023-03-10T02:52:38.498Z,21.50
2023-03-10T02:55:05.812Z,23.75
2023-03-10T02:57:32.523Z,23.70
2023-03-10T03:00:00.846Z,21.27
2023-03-10T03:02:27.590Z,27.17
2023-03-10T03:04:54.374Z,21.67
2023-03-10T03:07:21.148Z,23.55
2023-03-10T03:09:47.953Z,23.38
2023-03-10T03:12:14.843Z,23.15
2023-03-10T03:14:44.116Z,20.27
2023-03-10T03:17:10.847Z,21.55
2023-03-10T03:19:37.555Z,20.70
2023-03-10T03:22:04.260Z,20.88
2023-03-10T03:24:32.235Z,20.10
2023-03-10T03:26:59.226Z,19.80
2023-03-10T03:29:28.056Z,19.95
2023-03-10T03:31:55.118Z,19.45
2023-03-10T03:34:25.800Z,40.22
2023-03-10T03:36:55.622Z,52.22
2023-03-10T03:39:28.284Z,21.58
2023-03-10T03:44:30.189Z,16.52
2023-03-10T03:46:57.132Z,19.30
2023-03-10T03:49:25.224Z,20.88
2023-03-10T03:51:52.198Z,20.50
2023-03-10T03:54:19.459Z,22.80
2023-03-10T03:56:46.522Z,29.42
2023-03-10T03:59:14.500Z,20.55
2023-03-10T04:01:41.699Z,23.33
2023-03-10T04:04:09.263Z,18.00
2023-03-10T04:06:36.277Z,16.80
2023-03-10T04:09:04.351Z,16.20
2023-03-10T04:11:32.751Z,15.95
2023-03-10T04:14:00.158Z,15.75
2023-03-10T04:16:27.574Z,14.48
2023-03-10T04:18:54.475Z,15.20
2023-03-10T04:21:21.219Z,15.93
2023-03-10T04:23:51.213Z,14.50
2023-03-10T04:26:22.627Z,14.05
2023-03-10T04:28:49.893Z,12.77
2023-03-10T04:31:22.150Z,15.02
2023-03-10T04:33:50.471Z,14.23
2023-03-10T04:36:19.240Z,15.85
2023-03-10T04:38:51.638Z,14.13
2023-03-10T04:43:47.871Z,12.98
2023-03-10T04:46:16.765Z,13.27
2023-03-10T04:48:44.484Z,13.40
2023-03-10T04:51:12.626Z,12.07
2023-03-10T04:53:45.810Z,13.35
2023-03-10T04:56:12.915Z,14.63
2023-03-10T04:58:40.431Z,12.25
2023-03-10T05:01:12.405Z,14.45
2023-03-10T05:03:43.561Z,12.32
2023-03-10T05:06:16.007Z,15.73
2023-03-10T05:08:46.984Z,10.77
2023-03-10T05:11:15.044Z,15.38
2023-03-10T05:13:41.815Z,15.23
2023-03-10T05:16:16.951Z,11.40
2023-03-10T05:18:45.579Z,13.13
2023-03-10T05:21:13.215Z,9.68
2023-03-10T05:23:41.090Z,12.70
2023-03-10T05:26:09.747Z,14.73
2023-03-10T05:28:37.057Z,13.98
2023-03-10T05:31:12.759Z,12.63
2023-03-10T05:33:44.824Z,11.32
2023-03-10T05:36:14.863Z,12.45
2023-03-10T05:38:44.068Z,11.10
2023-03-10T05:41:13.785Z,12.68
2023-03-10T05:43:41.879Z,12.48
2023-03-10T05:46:10.835Z,12.18
2023-03-10T05:48:43.877Z,11.23
2023-03-10T05:51:12.192Z,13.98
2023-03-10T05:53:39.304Z,11.48
2023-03-10T05:56:12.224Z,12.45
2023-03-10T05:58:39.945Z,12.00
2023-03-10T06:01:11.540Z,14.52
2023-03-10T06:03:41.184Z,14.00
2023-03-10T06:06:08.289Z,13.07
2023-03-10T06:08:35.429Z,13.43
2023-03-10T06:11:02.671Z,12.45
2023-03-10T06:13:29.526Z,14.07
2023-03-10T06:16:04.110Z,11.27
2023-03-10T06:18:32.137Z,13.55
2023-03-10T06:20:58.882Z,14.68
2023-03-10T06:23:26.366Z,13.70
2023-03-10T06:26:01.995Z,13.68
2023-03-10T06:28:33.215Z,13.73
2023-03-10T06:31:01.570Z,12.90
2023-03-10T06:33:28.878Z,12.07
2023-03-10T06:35:55.947Z,14.38
2023-03-10T06:38:23.130Z,15.13
2023-03-10T06:40:50.090Z,11.75
2023-03-10T06:43:16.973Z,15.40
2023-03-10T06:45:45.216Z,13.98
2023-03-10T06:48:12.512Z,12.23
2023-03-10T06:50:48.039Z,12.02
2023-03-10T06:53:16.850Z,13.80
2023-03-10T06:55:43.734Z,10.65
2023-03-10T06:58:10.593Z,13.30
2023-03-10T07:00:39.171Z,12.45
2023-03-10T07:03:06.090Z,13.65
2023-03-10T07:05:32.816Z,15.57
2023-03-10T07:07:59.585Z,14.32
2023-03-10T07:10:26.387Z,12.68
2023-03-10T07:12:55.370Z,11.00
2023-03-10T07:15:23.052Z,11.65
2023-03-10T07:17:49.849Z,14.70
2023-03-10T07:20:17.412Z,11.15
2023-03-10T07:22:44.699Z,8.93
2023-03-10T07:25:11.521Z,10.13
2023-03-10T07:27:38.307Z,12.52
2023-03-10T07:30:06.143Z,16.08
2023-03-10T07:32:33.114Z,13.50
2023-03-10T07:34:59.901Z,14.18
2023-03-10T07:37:26.649Z,14.38
2023-03-10T07:39:54.711Z,11.65
2023-03-10T07:42:21.599Z,12.27
2023-03-10T07:44:48.567Z,11.75
2023-03-10T07:47:15.321Z,13.43
2023-03-10T07:49:47.010Z,9.98
2023-03-10T07:52:15.366Z,9.35
2023-03-10T07:54:44.389Z,12.30
2023-03-10T07:57:12.868Z,11.43
2023-03-10T07:59:40.372Z,13.60
2023-03-10T08:02:07.505Z,13.05
2023-03-10T08:04:34.371Z,11.15
2023-03-10T08:07:02.425Z,11.10
2023-03-10T08:09:29.928Z,13.50
2023-03-10T08:11:58.969Z,10.27
2023-03-10T08:14:28.232Z,9.77
2023-03-10T08:16:56.837Z,11.73
2023-03-10T08:19:24.400Z,10.85
2023-03-10T08:21:52.167Z,12.15
2023-03-10T08:24:18.881Z,11.63
2023-03-10T08:26:45.646Z,10.18
2023-03-10T08:29:12.469Z,10.05
2023-03-10T08:31:41.371Z,11.85
2023-03-10T08:34:19.705Z,11.57
2023-03-10T08:36:52.201Z,9.70
2023-03-10T08:39:27.743Z,9.43
2023-03-10T08:41:55.281Z,11.65
2023-03-10T08:44:22.312Z,11.73
2023-03-10T08:46:49.982Z,10.65
2023-03-10T08:49:18.606Z,8.82
2023-03-10T08:51:50.643Z,10.82
2023-03-10T08:54:22.512Z,13.82
2023-03-10T08:56:49.761Z,19.55
2023-03-10T08:59:23.518Z,13.38
2023-03-10T09:01:54.032Z,13.32
2023-03-10T09:04:23.735Z,8.68
2023-03-10T09:06:51.244Z,9.07
2023-03-10T09:09:24.605Z,11.83
2023-03-10T09:11:56.373Z,17.65
2023-03-10T09:14:23.727Z,12.20
2023-03-10T09:16:50.864Z,11.23
2023-03-10T09:19:26.250Z,11.75
2023-03-10T09:21:55.518Z,9.32
2023-03-10T09:24:38.279Z,8.77
2023-03-10T09:27:15.388Z,11.35
2023-03-10T09:29:51.190Z,16.63
2023-03-10T09:32:24.003Z,23.38
2023-03-10T09:34:54.398Z,12.13
2023-03-10T09:37:28.511Z,10.18
2023-03-10T09:40:16.393Z,9.27
2023-03-10T09:42:57.576Z,9.20
2023-03-10T09:45:56.610Z,10.43
2023-03-10T09:48:50.637Z,9.88
2023-03-10T09:51:32.020Z,11.43
2023-03-10T09:54:25.938Z,11.55
2023-03-10T09:56:55.254Z,10.57
2023-03-10T09:59:43.043Z,10.73
2023-03-10T10:02:39.566Z,9.50
2023-03-10T10:05:18.486Z,9.52
2023-03-10T10:07:52.406Z,9.00
2023-03-10T10:10:39.601Z,8.77
2023-03-10T10:13:16.811Z,9.57
2023-03-10T10:15:51.331Z,9.02
2023-03-10T10:18:27.031Z,12.07
2023-03-10T10:21:13.589Z,10.95
2023-03-10T10:23:51.360Z,13.60
2023-03-10T10:26:24.258Z,9.50
2023-03-10T10:29:07.127Z,12.02
2023-03-10T10:31:36.046Z,12.88
2023-03-10T10:34:22.280Z,13.90
2023-03-10T10:36:55.388Z,13.32
2023-03-10T10:39:41.066Z,11.40
2023-03-10T10:42:26.904Z,13.70
2023-03-10T10:45:02.567Z,11.20
2023-03-10T10:47:36.861Z,12.60
2023-03-10T10:50:24.106Z,16.45
2023-03-10T10:53:16.225Z,14.00
2023-03-10T10:55:44.773Z,14.27
2023-03-10T10:58:28.644Z,11.75
2023-03-10T11:00:59.327Z,12.00
2023-03-10T11:05:56.515Z,12.15
2023-03-10T11:08:27.221Z,13.60
2023-03-10T11:10:59.768Z,13.35
2023-03-10T11:13:35.877Z,10.85
2023-03-10T11:16:23.959Z,11.32
2023-03-10T11:18:58.666Z,11.10
2023-03-10T11:21:32.594Z,12.48
2023-03-10T11:24:17.773Z,11.68
2023-03-10T11:26:52.258Z,13.88
2023-03-10T11:29:28.223Z,18.38
2023-03-10T11:32:04.108Z,14.02
2023-03-10T11:34:32.392Z,19.15
2023-03-10T11:39:46.284Z,21.90
2023-03-10T11:42:32.644Z,15.93
2023-03-10T11:45:13.075Z,23.58
2023-03-10T11:48:03.588Z,19.95
2023-03-10T11:50:38.357Z,17.15
2023-03-10T11:53:26.284Z,13.45
2023-03-10T11:55:54.145Z,40.45
2023-03-10T11:58:28.970Z,19.35
2023-03-10T12:00:56.114Z,12.98
2023-03-10T12:03:43.628Z,14.48
2023-03-10T12:06:14.349Z,14.40
2023-03-10T12:08:41.868Z,13.52
2023-03-10T12:11:15.518Z,13.10
2023-03-10T12:13:47.291Z,15.75
2023-03-10T12:16:26.099Z,14.45
2023-03-10T12:18:56.889Z,12.88
2023-03-10T12:39:32.775Z,11.18
2023-03-10T12:42:04.259Z,12.07
2023-03-10T12:57:59.562Z,128.23
2023-03-10T13:03:53.811Z,11.60
2023-03-10T13:06:47.926Z,10.52
2023-03-10T13:10:22.819Z,9.00
2023-03-10T13:13:07.096Z,13.10
2023-03-10T13:48:39.506Z,12.75
2023-03-10T13:51:58.969Z,12.70
2023-03-10T14:02:13.701Z,12.80
2023-03-10T14:05:57.064Z,14.95
2023-03-10T14:08:34.082Z,18.92
2023-03-10T14:11:25.239Z,21.77
2023-03-10T14:41:40.195Z,21.90
2023-03-10T14:44:10.079Z,24.20
2023-03-10T14:50:23.874Z,24.25
2023-03-10T14:52:58.183Z,24.20
2023-03-10T14:55:41.926Z,21.15
2023-03-10T14:59:07.969Z,18.10
2023-03-10T15:01:41.955Z,18.55
2023-03-10T15:04:27.646Z,34.88
2023-03-10T15:07:04.607Z,20.42
2023-03-10T15:10:10.588Z,26.88
2023-03-10T15:13:02.139Z,37.77
2023-03-10T15:16:03.490Z,34.22
2023-03-10T15:19:00.627Z,38.58
2023-03-10T15:21:27.874Z,35.33
2023-03-10T15:24:23.604Z,51.97
2023-03-10T15:27:34.044Z,33.13
2023-03-10T15:38:21.304Z,37.78
2023-03-10T15:40:58.346Z,29.85
2023-03-10T15:44:33.229Z,27.33
2023-03-10T15:47:11.102Z,41.17
2023-03-10T15:50:25.957Z,37.30
2023-03-10T15:53:26.022Z,32.88
2023-03-10T15:55:56.608Z,34.33
2023-03-10T15:58:30.427Z,40.60
2023-03-10T16:01:21.074Z,42.03
2023-03-10T16:03:58.628Z,36.55
2023-03-10T16:06:40.277Z,35.35
2023-03-10T16:09:51.946Z,38.90
2023-03-10T16:12:23.850Z,34.88
2023-03-10T16:17:29.160Z,36.65
2023-03-10T16:20:00.890Z,28.88
2023-03-10T16:22:27.926Z,30.15
2023-03-10T16:24:54.925Z,41.28
2023-03-10T16:27:21.733Z,56.92
2023-03-10T16:29:51.943Z,41.65
2023-03-10T16:32:19.865Z,36.42
2023-03-10T16:35:04.337Z,34.22
2023-03-10T16:37:40.653Z,29.98
2023-03-10T16:40:26.777Z,32.10
2023-03-10T16:42:58.455Z,26.40
2023-03-10T16:45:33.856Z,26.30
2023-03-10T16:48:09.768Z,26.13
2023-03-10T16:50:38.036Z,23.90
2023-03-10T16:53:07.922Z,28.40
2023-03-10T16:55:35.094Z,27.90
2023-03-10T16:58:03.702Z,25.02
2023-03-10T17:00:31.400Z,26.17
2023-03-10T17:03:00.432Z,28.13
2023-03-10T17:13:00.556Z,29.50
2023-03-10T17:16:30.475Z,24.75
2023-03-10T17:19:24.612Z,29.45
2023-03-10T17:22:12.074Z,25.77
2023-03-10T17:24:42.008Z,27.25
2023-03-10T17:27:20.882Z,26.77
2023-03-10T17:30:03.614Z,27.27
2023-03-10T17:33:04.700Z,26.35
2023-03-10T17:36:00.738Z,25.67
2023-03-10T17:38:41.495Z,26.40
2023-03-10T17:41:12.260Z,27.85
2023-03-10T17:43:57.161Z,30.48
2023-03-10T17:46:45.736Z,30.63
2023-03-10T17:50:02.601Z,31.63
2023-03-10T17:52:42.885Z,39.70
2023-03-10T17:55:34.578Z,40.50
2023-03-10T17:58:08.843Z,51.17
2023-03-10T18:00:36.706Z,38.92
2023-03-10T18:03:37.127Z,39.78
2023-03-10T18:06:33.907Z,34.55
2023-03-10T18:09:32.731Z,36.42
2023-03-10T18:12:23.670Z,37.47
2023-03-10T18:15:09.725Z,35.00
2023-03-10T18:25:15.005Z,40.72
2023-03-10T18:31:08.181Z,45.83
2023-03-10T18:34:10.509Z,53.40
2023-03-10T18:37:28.402Z,84.07
2023-03-10T18:40:11.114Z,49.90
2023-03-10T18:46:28.095Z,45.50
2023-03-10T18:52:30.550Z,45.22
2023-03-10T18:55:24.449Z,42.33
2023-03-10T18:58:20.974Z,39.88
2023-03-10T19:00:48.218Z,39.40
2023-03-10T19:03:23.916Z,40.17
2023-03-10T19:06:16.909Z,38.58
2023-03-10T19:09:12.647Z,43.13
2023-03-10T19:12:18.449Z,42.00
2023-03-10T19:21:43.545Z,39.60
2023-03-10T19:25:17.811Z,38.00
2023-03-10T19:28:35.454Z,39.15
2023-03-10T19:31:24.658Z,39.67
2023-03-10T19:33:56.821Z,39.28
2023-03-10T19:36:30.371Z,38.17
2023-03-10T19:39:00.814Z,37.90
2023-03-10T19:41:44.763Z,40.53
2023-03-10T19:44:31.093Z,43.95
2023-03-10T19:47:00.974Z,40.53
2023-03-10T19:55:58.806Z,41.03
2023-03-10T19:58:48.638Z,38.22
2023-03-10T20:01:57.084Z,38.22
2023-03-10T20:04:24.033Z,109.88
2023-03-10T20:06:51.012Z,41.33
2023-03-10T20:09:19.076Z,39.17
2023-03-10T20:11:51.324Z,38.92
2023-03-10T20:17:09.600Z,39.17
2023-03-10T20:19:36.833Z,35.70
2023-03-10T20:22:04.809Z,36.40
2023-03-10T20:24:31.928Z,37.38
2023-03-10T20:27:00.348Z,39.95
2023-03-10T20:29:30.470Z,45.92
2023-03-10T20:31:57.508Z,40.20
2023-03-10T20:34:26.002Z,48.15
2023-03-10T20:36:55.260Z,44.17
2023-03-10T20:39:22.481Z,39.88
2023-03-10T20:41:49.906Z,40.00
2023-03-10T20:44:17.281Z,48.63
2023-03-10T20:46:47.203Z,37.08
2023-03-10T20:49:18.414Z,35.78
2023-03-10T20:51:46.122Z,35.08
2023-03-10T20:54:19.245Z,38.75
2023-03-10T20:56:51.862Z,39.50
2023-03-10T20:59:27.217Z,37.75
2023-03-10T21:02:38.310Z,38.35
2023-03-10T21:05:08.708Z,37.17
2023-03-10T21:07:35.790Z,40.20
2023-03-10T21:10:04.505Z,49.60
2023-03-10T21:12:34.450Z,67.00
2023-03-10T21:15:07.550Z,41.58
2023-03-10T21:17:37.510Z,41.75
2023-03-10T21:20:08.177Z,50.83
2023-03-10T21:25:06.968Z,40.25
2023-03-10T21:27:35.849Z,45.10
2023-03-10T21:30:08.076Z,47.05
2023-03-10T21:32:35.494Z,44.13
2023-03-10T21:35:05.231Z,48.42
2023-03-10T21:37:32.959Z,47.03
2023-03-10T21:40:01.306Z,48.67
2023-03-10T21:42:28.182Z,52.38
2023-03-10T21:44:56.076Z,52.90
2023-03-10T21:47:28.729Z,61.58
2023-03-10T21:49:58.068Z,57.97
2023-03-10T21:52:35.234Z,50.97
2023-03-10T21:55:06.438Z,59.65
2023-03-10T21:57:34.581Z,56.60
2023-03-10T22:00:04.254Z,57.63
2023-03-10T22:02:37.838Z,59.35
2023-03-10T22:05:06.588Z,51.45
2023-03-10T22:10:25.746Z,52.55
2023-03-10T22:12:53.041Z,49.00
2023-03-10T22:15:24.185Z,46.67
2023-03-10T22:17:54.184Z,51.17
2023-03-10T22:20:23.941Z,48.25
2023-03-10T22:22:53.435Z,48.33
2023-03-10T22:25:21.257Z,50.60
2023-03-10T22:27:53.642Z,50.95
2023-03-10T22:30:21.331Z,47.50
2023-03-10T22:32:49.820Z,49.40
2023-03-10T22:35:18.094Z,41.00
2023-03-10T22:37:47.194Z,43.45
2023-03-10T22:40:17.025Z,41.38
2023-03-10T22:42:44.787Z,39.72
2023-03-10T22:45:17.697Z,44.75
2023-03-10T22:47:44.717Z,38.72
2023-03-10T22:50:25.298Z,38.33
2023-03-10T22:52:52.811Z,41.90
2023-03-10T22:55:24.672Z,36.65
2023-03-10T22:57:53.046Z,35.75
2023-03-10T23:00:22.116Z,35.47
2023-03-10T23:02:50.514Z,34.42
2023-03-10T23:05:18.000Z,35.10
2023-03-10T23:07:45.899Z,31.55
2023-03-10T23:10:19.444Z,33.17
2023-03-10T23:12:49.602Z,34.38
2023-03-10T23:15:26.423Z,34.40
2023-03-10T23:17:54.729Z,35.17
2023-03-10T23:20:27.774Z,31.67
2023-03-10T23:22:56.327Z,34.58
2023-03-10T23:25:32.240Z,39.85
2023-03-10T23:27:59.868Z,35.55
2023-03-10T23:30:27.455Z,32.70
2023-03-10T23:32:55.088Z,33.83
2023-03-10T23:35:26.918Z,32.92
2023-03-10T23:38:02.927Z,34.35
2023-03-10T23:40:34.494Z,33.05
2023-03-10T23:43:09.161Z,36.05
2023-03-10T23:45:40.282Z,30.55
2023-03-10T23:48:09.202Z,35.50
2023-03-10T23:50:42.270Z,30.15
2023-03-10T23:53:18.795Z,30.90
2023-03-10T23:55:46.680Z,32.58
2023-03-10T23:58:20.443Z,27.58
